Time;durP1;ratioP1;P1;durP2;ratioP2;P2;SDS_P1;SDS_P2;PMS_P1;PMS_P2;Temp;Humidity;BMP_temperature;BMP_pressure;BME280_temperature;BME280_humidity;BME280_pressure;Samples;Min_cycle;Max_cycle;Signal;HPM_P1;HPM_P2
2023/10/21 00:05:00;;;;;;;14.70;11.50;;;;;;;8.85;96.19;97581.87;220578;1257;126724;-67
2023/10/21 00:10:06;;;;;;;21.00;14.70;;;;;;;8.89;96.39;97590.59;220339;1257;140167;-67
2023/10/21 00:15:11;;;;;;;20.80;11.40;;;;;;;8.95;96.25;97595.06;218290;1257;140478;-66
2023/10/21 00:20:15;;;;;;;18.80;11.90;;;;;;;8.98;96.06;97598.88;218849;1257;140778;-66
2023/10/21 00:25:19;;;;;;;21.40;12.70;;;;;;;9.01;96.28;97605.50;218129;1258;140587;-66
2023/10/21 00:30:23;;;;;;;16.60;12.30;;;;;;;9.04;96.47;97607.98;217668;1257;140204;-69
2023/10/21 00:35:27;;;;;;;16.30;12.30;;;;;;;9.06;96.35;97602.17;218190;1261;140178;-70
2023/10/21 00:40:31;;;;;;;15.30;11.40;;;;;;;9.07;96.41;97603.08;218242;1261;142100;-67
2023/10/21 00:45:36;;;;;;;15.00;11.00;;;;;;;9.09;96.47;97596.58;218382;1260;141053;-70
2023/10/21 00:50:40;;;;;;;15.50;12.00;;;;;;;9.11;96.64;97587.52;217569;1263;140618;-69
2023/10/21 00:55:45;;;;;;;18.20;13.60;;;;;;;9.14;96.71;97591.02;218109;1257;140241;-70
2023/10/21 01:00:50;;;;;;;15.20;10.90;;;;;;;9.14;96.51;97605.32;218090;1257;140078;-70
2023/10/21 01:05:55;;;;;;;17.10;11.60;;;;;;;9.13;96.69;97611.44;217947;1257;140373;-70
2023/10/21 01:11:00;;;;;;;16.30;10.80;;;;;;;9.15;96.69;97608.71;218153;1257;140587;-69
2023/10/21 01:16:05;;;;;;;22.70;11.90;;;;;;;9.16;96.56;97599.40;218684;1257;140285;-70
2023/10/21 01:21:10;;;;;;;19.60;12.20;;;;;;;9.18;96.68;97605.96;217716;1263;141182;-68
2023/10/21 01:26:14;;;;;;;18.80;12.80;;;;;;;9.21;96.76;97606.05;218429;1257;140032;-70
2023/10/21 01:31:18;;;;;;;15.50;12.30;;;;;;;9.23;96.77;97610.50;219374;1257;139859;-69
2023/10/21 01:36:22;;;;;;;16.20;11.80;;;;;;;9.26;96.61;97613.09;217658;1262;140905;-70
2023/10/21 01:41:27;;;;;;;17.30;11.60;;;;;;;9.27;96.63;97614.14;218781;1257;140948;-69
2023/10/21 01:46:30;;;;;;;17.60;11.30;;;;;;;9.30;96.75;97610.34;218229;1261;140672;-68
2023/10/21 01:51:35;;;;;;;15.40;11.30;;;;;;;9.31;96.69;97612.36;217963;1257;141041;-70
2023/10/21 01:56:40;;;;;;;16.90;11.70;;;;;;;9.33;96.65;97628.77;219299;1257;140497;-68
2023/10/21 02:01:44;;;;;;;15.90;11.50;;;;;;;9.35;96.81;97643.38;219223;1257;141092;-68
2023/10/21 02:06:49;;;;;;;20.50;14.50;;;;;;;9.40;96.90;97633.36;218999;1257;140287;-67
2023/10/21 02:11:57;;;;;;;17.50;12.60;;;;;;;9.44;96.97;97640.66;218805;1257;140948;-71
2023/10/21 02:17:02;;;;;;;16.80;11.80;;;;;;;9.46;96.77;97647.40;218153;1257;1215516;-69
2023/10/21 02:22:06;;;;;;;15.50;11.20;;;;;;;9.49;96.87;97649.54;218794;1257;140250;-67
2023/10/21 02:27:12;;;;;;;17.10;13.20;;;;;;;9.51;96.68;97653.56;219054;1258;140244;-67
2023/10/21 02:32:17;;;;;;;15.60;13.30;;;;;;;9.55;96.91;97664.13;218098;1258;142260;-69
2023/10/21 02:37:22;;;;;;;18.10;13.50;;;;;;;9.57;96.88;97671.98;217733;1259;140476;-67
2023/10/21 02:42:26;;;;;;;23.50;14.80;;;;;;;9.60;97.00;97688.23;219131;1257;141024;-69
2023/10/21 02:47:30;;;;;;;17.70;11.80;;;;;;;9.62;97.07;97696.05;218133;1260;140243;-69
2023/10/21 02:52:39;;;;;;;22.50;14.70;;;;;;;9.63;97.02;97707.05;218165;1259;140229;-68
2023/10/21 02:57:44;;;;;;;21.10;12.10;;;;;;;9.65;96.94;97710.13;218701;1259;142175;-70
2023/10/21 03:02:48;;;;;;;17.40;13.20;;;;;;;9.66;97.04;97723.41;217447;1259;139919;-70
2023/10/21 03:07:53;;;;;;;19.60;12.60;;;;;;;9.68;96.92;97737.77;217705;1257;140138;-69
2023/10/21 03:12:56;;;;;;;15.10;10.70;;;;;;;9.68;96.88;97748.68;218443;1257;140166;-69
2023/10/21 03:18:00;;;;;;;16.90;12.90;;;;;;;9.68;96.95;97735.33;218057;1257;140025;-70
2023/10/21 03:23:05;;;;;;;18.30;12.40;;;;;;;9.70;97.03;97737.17;217842;1257;141022;-70
2023/10/21 03:28:09;;;;;;;17.80;13.30;;;;;;;9.71;97.09;97722.91;218493;1257;140134;-70
2023/10/21 03:33:15;;;;;;;19.10;13.70;;;;;;;9.72;97.06;97714.34;218262;1257;139914;-70
2023/10/21 03:38:21;;;;;;;31.80;14.90;;;;;;;9.73;97.24;97704.32;219183;1257;141846;-70
2023/10/21 03:43:26;;;;;;;16.50;13.20;;;;;;;9.75;97.05;97686.48;219141;1257;140113;-68
2023/10/21 03:48:32;;;;;;;21.50;15.10;;;;;;;9.74;97.12;97678.77;217530;1257;140606;-68
2023/10/21 03:53:37;;;;;;;34.80;14.40;;;;;;;9.75;97.19;97682.55;220127;1257;142181;-69
2023/10/21 03:58:42;;;;;;;20.50;13.80;;;;;;;9.77;97.27;97692.54;220452;1257;140676;-68
2023/10/21 04:03:47;;;;;;;20.40;13.30;;;;;;;9.81;97.34;97704.34;220363;1257;140352;-69
2023/10/21 04:08:52;;;;;;;24.30;14.50;;;;;;;9.86;97.19;97712.39;219365;1259;140380;-68
2023/10/21 04:13:57;;;;;;;21.10;14.70;;;;;;;9.90;97.17;97710.93;220006;1259;140898;-69
2023/10/21 04:19:01;;;;;;;22.90;14.70;;;;;;;9.95;97.14;97720.69;218421;1259;140276;-69
2023/10/21 04:24:06;;;;;;;26.30;16.60;;;;;;;9.97;97.19;97712.84;218287;1259;142748;-69
2023/10/21 04:29:12;;;;;;;19.70;13.00;;;;;;;9.97;96.97;97722.52;218527;1259;140350;-68
2023/10/21 04:34:16;;;;;;;18.70;15.20;;;;;;;9.96;97.14;97749.73;219029;1259;141402;-69
2023/10/21 04:39:21;;;;;;;18.90;14.10;;;;;;;9.97;97.40;97747.33;217339;1259;140874;-68
2023/10/21 04:44:25;;;;;;;20.10;13.90;;;;;;;9.97;97.19;97764.70;217393;1259;141004;-68
2023/10/21 04:49:30;;;;;;;22.10;15.30;;;;;;;9.96;97.31;97738.24;218478;1258;141197;-68
2023/10/21 04:54:34;;;;;;;21.70;15.50;;;;;;;9.97;97.51;97726.52;217161;1261;140416;-68
2023/10/21 04:59:41;;;;;;;21.00;13.80;;;;;;;9.98;97.45;97740.67;218516;1258;164861;-69
2023/10/21 05:04:50;;;;;;;21.50;15.00;;;;;;;9.95;97.54;97756.98;217674;1262;142408;-68
2023/10/21 05:09:54;;;;;;;25.00;15.90;;;;;;;9.95;97.58;97767.69;218149;1259;140133;-68
2023/10/21 05:14:59;;;;;;;18.50;13.60;;;;;;;9.96;97.59;97786.90;217631;1259;140024;-69
2023/10/21 05:20:05;;;;;;;24.80;16.20;;;;;;;9.93;97.51;97820.13;217950;1259;140958;-69
2023/10/21 05:25:09;;;;;;;24.40;17.20;;;;;;;9.94;97.68;97831.36;217380;1262;140327;-68
2023/10/21 05:30:14;;;;;;;24.10;15.90;;;;;;;9.95;97.71;97825.66;217620;1262;140247;-68
2023/10/21 05:35:19;;;;;;;24.70;16.10;;;;;;;9.95;97.62;97859.88;218776;1259;140150;-69
2023/10/21 05:40:25;;;;;;;25.10;15.90;;;;;;;9.96;97.68;97871.27;220161;1259;140510;-69
2023/10/21 05:45:29;;;;;;;27.50;15.50;;;;;;;9.98;97.60;97878.81;218902;1259;141704;-70
2023/10/21 05:50:33;;;;;;;22.50;13.70;;;;;;;10.04;97.58;97900.03;219997;1259;141730;-69
2023/10/21 05:55:41;;;;;;;23.00;14.30;;;;;;;10.06;97.20;97893.79;220098;1258;141540;-68
2023/10/21 06:00:45;;;;;;;23.30;15.30;;;;;;;10.10;97.43;97902.05;219838;1259;140665;-68
2023/10/21 06:05:50;;;;;;;19.50;15.50;;;;;;;10.15;97.33;97902.77;220019;1258;140689;-69
2023/10/21 06:10:54;;;;;;;19.20;14.50;;;;;;;10.21;97.41;97896.95;218652;1259;140327;-69
2023/10/21 06:15:58;;;;;;;16.80;12.80;;;;;;;10.27;97.48;97908.79;218658;1259;140238;-69
2023/10/21 06:21:04;;;;;;;23.00;16.00;;;;;;;10.30;97.46;97933.43;217586;1259;141379;-68
2023/10/21 06:26:11;;;;;;;20.80;14.70;;;;;;;10.34;97.78;97939.42;218448;1258;140736;-68
2023/10/21 06:31:15;;;;;;;20.50;14.40;;;;;;;10.35;97.54;97965.89;218401;1259;140685;-67
2023/10/21 06:36:20;;;;;;;23.80;15.70;;;;;;;10.33;97.45;97963.09;217400;1262;140340;-68
2023/10/21 06:41:24;;;;;;;22.50;17.30;;;;;;;10.37;97.92;97960.40;217806;1259;141420;-68
2023/10/21 06:46:30;;;;;;;23.20;15.80;;;;;;;10.43;97.99;97971.05;217669;1260;140750;-68
2023/10/21 06:51:38;;;;;;;24.90;18.90;;;;;;;10.50;98.30;97984.91;218293;1259;140566;-69
2023/10/21 06:56:42;;;;;;;28.20;21.10;;;;;;;10.64;98.56;97989.52;217734;1259;140294;-68
2023/10/21 07:01:46;;;;;;;29.70;18.00;;;;;;;10.79;98.62;98012.21;218561;1259;140589;-69
2023/10/21 07:06:51;;;;;;;21.90;18.70;;;;;;;10.87;98.52;98029.32;217850;1262;140456;-68
2023/10/21 07:11:54;;;;;;;29.20;20.00;;;;;;;10.89;98.48;98025.15;218981;1259;140828;-69
2023/10/21 07:17:02;;;;;;;18.80;15.20;;;;;;;10.92;98.21;98017.30;218971;1259;141722;-69
2023/10/21 07:22:05;;;;;;;19.70;15.40;;;;;;;10.92;97.82;98024.66;218272;1259;141273;-68
2023/10/21 07:27:09;;;;;;;23.70;17.30;;;;;;;10.92;98.16;98006.42;219158;1259;140703;-69
2023/10/21 07:32:13;;;;;;;30.80;16.30;;;;;;;10.96;98.07;98019.25;217884;1259;140707;-68
2023/10/21 07:37:18;;;;;;;26.20;18.10;;;;;;;10.97;98.09;98012.52;217445;1259;140573;-68
2023/10/21 07:42:23;;;;;;;24.20;17.00;;;;;;;10.99;98.08;98017.09;218451;1262;140709;-69
2023/10/21 07:47:28;;;;;;;25.40;16.60;;;;;;;11.01;98.13;98030.22;220088;1259;141769;-69
2023/10/21 07:52:32;;;;;;;29.70;21.60;;;;;;;11.08;98.40;98045.90;220045;1258;141017;-69
2023/10/21 07:57:38;;;;;;;35.70;24.60;;;;;;;11.17;98.43;98051.44;219584;1259;140720;-69
2023/10/21 08:02:42;;;;;;;39.20;24.80;;;;;;;11.27;98.28;98065.55;218429;1259;142485;-69
2023/10/21 08:07:47;;;;;;;34.90;23.90;;;;;;;11.38;98.19;98060.54;218319;1258;140531;-68
2023/10/21 08:12:51;;;;;;;34.70;21.40;;;;;;;11.46;98.38;98062.48;219445;1258;140738;-68
2023/10/21 08:17:57;;;;;;;22.60;17.40;;;;;;;11.60;98.26;98071.86;217743;1258;142853;-68
2023/10/21 08:23:01;;;;;;;30.10;20.80;;;;;;;11.67;97.91;98106.38;218625;1259;142682;-69
2023/10/21 08:28:08;;;;;;;24.60;16.80;;;;;;;11.79;98.41;98122.74;219006;1259;140471;-69
2023/10/21 08:33:12;;;;;;;26.20;17.30;;;;;;;11.91;98.26;98132.47;217549;1258;140049;-68
2023/10/21 08:38:16;;;;;;;27.00;19.80;;;;;;;12.02;98.68;98143.66;218835;1259;141218;-69
2023/10/21 08:43:21;;;;;;;21.70;17.30;;;;;;;12.15;98.72;98173.95;217799;1258;140417;-69
2023/10/21 08:48:27;;;;;;;26.10;17.80;;;;;;;12.22;98.60;98158.69;218443;1259;140937;-69
2023/10/21 08:53:36;;;;;;;25.80;21.30;;;;;;;12.26;98.38;98173.96;217585;1261;141416;-69
2023/10/21 08:58:42;;;;;;;23.80;17.00;;;;;;;12.31;98.54;98186.48;218406;1261;141079;-69
2023/10/21 09:03:47;;;;;;;21.30;14.90;;;;;;;12.36;98.59;98203.64;218588;1259;140322;-69
2023/10/21 09:08:51;;;;;;;24.90;18.50;;;;;;;12.48;98.61;98207.09;218113;1262;140223;-69
2023/10/21 09:13:59;;;;;;;33.10;18.50;;;;;;;12.58;98.09;98226.55;219916;1259;141014;-69
2023/10/21 09:19:04;;;;;;;;;;;;;;;12.55;97.84;98231.42;218564;1258;141171;-69
2023/10/21 09:24:10;;;;;;;29.10;20.30;;;;;;;12.62;98.22;98252.48;219355;1259;129626;-69
2023/10/21 09:29:20;;;;;;;25.20;16.20;;;;;;;12.77;98.26;98252.01;219190;1259;141003;-69
2023/10/21 09:34:27;;;;;;;29.60;19.90;;;;;;;12.96;97.88;98242.64;219950;1258;140700;-70
2023/10/21 09:39:36;;;;;;;23.90;17.50;;;;;;;13.18;97.76;98244.20;220098;1259;141230;-69
2023/10/21 09:44:43;;;;;;;24.60;18.40;;;;;;;13.35;97.30;98240.17;219563;1257;140463;-69
2023/10/21 09:49:49;;;;;;;22.60;17.70;;;;;;;13.47;97.12;98264.14;217762;1257;140711;-69
2023/10/21 09:55:10;;;;;;;28.60;19.90;;;;;;;13.50;96.48;98271.91;219398;1258;141271;-69
2023/10/21 10:00:17;;;;;;;21.40;17.00;;;;;;;13.51;96.13;98269.33;218642;1259;140326;-69
2023/10/21 10:05:22;;;;;;;23.80;19.10;;;;;;;13.55;95.99;98274.73;218995;1258;140999;-69
2023/10/21 10:10:28;;;;;;;23.70;20.70;;;;;;;13.92;96.91;98282.65;219153;1257;140356;-69
2023/10/21 10:15:33;;;;;;;26.90;18.90;;;;;;;14.13;96.14;98284.47;218211;1259;140814;-68
2023/10/21 10:20:48;;;;;;;27.40;19.30;;;;;;;14.07;95.27;98280.75;218810;1257;140561;-70
2023/10/21 10:25:57;;;;;;;41.40;19.80;;;;;;;14.09;95.60;98287.19;218223;1259;140395;-69
2023/10/21 10:31:04;;;;;;;19.90;17.70;;;;;;;14.12;95.27;98301.30;218063;1259;140346;-69
2023/10/21 10:36:12;;;;;;;23.50;17.60;;;;;;;13.97;94.57;98318.21;217595;1259;141355;-69
2023/10/21 10:41:20;;;;;;;25.00;19.40;;;;;;;13.88;94.74;98325.84;217950;1259;140349;-69
2023/10/21 10:46:25;;;;;;;26.20;20.50;;;;;;;13.85;94.76;98332.10;218023;1261;141487;-69
2023/10/21 10:51:43;;;;;;;27.70;22.40;;;;;;;13.99;95.09;98329.91;217605;1259;141167;-69
2023/10/21 10:56:49;;;;;;;28.80;21.90;;;;;;;14.14;95.23;98341.90;217642;1257;140391;-70
2023/10/21 11:02:01;;;;;;;29.10;20.30;;;;;;;14.16;94.87;98350.28;218131;1259;140020;-69
2023/10/21 11:07:04;;;;;;;29.30;21.10;;;;;;;14.31;95.38;98358.09;218623;1259;140434;-70
2023/10/21 11:12:08;;;;;;;26.50;18.80;;;;;;;14.71;95.59;98361.53;217883;1258;140299;-70
2023/10/21 11:17:14;;;;;;;24.80;21.20;;;;;;;14.79;94.82;98368.09;218654;1259;140712;-69
2023/10/21 11:22:25;;;;;;;33.30;25.40;;;;;;;14.78;94.47;98376.54;219932;1258;141049;-69
2023/10/21 11:27:30;;;;;;;25.10;20.90;;;;;;;14.97;95.19;98376.64;218371;1259;140546;-69
2023/10/21 11:32:37;;;;;;;28.40;21.00;;;;;;;15.29;95.00;98382.80;220040;1259;140436;-71
2023/10/21 11:37:43;;;;;;;28.60;20.80;;;;;;;15.70;94.96;98390.10;219891;1262;141549;-70
2023/10/21 11:43:06;;;;;;;27.60;19.90;;;;;;;15.86;94.16;98404.52;219229;1260;140580;-68
2023/10/21 11:48:10;;;;;;;23.80;19.10;;;;;;;15.85;93.66;98408.02;219805;1259;143668;-68
2023/10/21 11:53:15;;;;;;;28.10;21.30;;;;;;;15.81;93.17;98411.31;217432;1258;140539;-71
2023/10/21 12:41:25;;;;;;;19.00;14.40;;;;;;;17.72;90.83;98444.94;217217;1259;141415;-69
2023/10/21 12:46:35;;;;;;;27.70;19.50;;;;;;;17.73;89.96;98460.50;218310;1259;140748;-70
2023/10/21 12:51:40;;;;;;;25.50;19.50;;;;;;;17.82;90.08;98475.65;218513;1260;140136;-68
2023/10/21 12:56:45;;;;;;;22.40;17.60;;;;;;;17.90;89.54;98479.48;217948;1260;140598;-68
2023/10/21 13:01:49;;;;;;;22.00;17.70;;;;;;;18.04;89.57;98493.13;218017;1259;141160;-68
2023/10/21 13:06:54;;;;;;;24.40;18.80;;;;;;;18.18;89.42;98496.63;218332;1260;221234;-69
2023/10/21 13:12:00;;;;;;;19.40;16.20;;;;;;;18.27;88.66;98506.29;218534;1262;140363;-68
2023/10/21 13:17:08;;;;;;;21.10;17.40;;;;;;;18.31;88.39;98516.71;217815;1259;139957;-69
2023/10/21 13:22:12;;;;;;;20.30;15.20;;;;;;;18.35;88.12;98523.27;218898;1263;141093;-68
2023/10/21 13:27:16;;;;;;;18.80;16.50;;;;;;;18.39;87.66;98531.27;217965;1262;140611;-68
2023/10/21 13:32:22;;;;;;;21.20;16.20;;;;;;;18.35;86.80;98532.86;219367;1259;142459;-68
2023/10/21 13:37:27;;;;;;;21.70;14.80;;;;;;;18.34;86.88;98531.89;218854;1260;140128;-68
2023/10/21 13:42:31;;;;;;;16.60;14.80;;;;;;;18.38;86.68;98543.71;218359;1262;141342;-70
2023/10/21 13:47:36;;;;;;;28.30;16.00;;;;;;;18.35;86.36;98544.44;218578;1258;140754;-69
2023/10/21 13:52:40;;;;;;;20.50;17.70;;;;;;;18.27;85.86;98546.31;219608;1259;140340;-71
2023/10/21 13:57:47;;;;;;;25.20;17.60;;;;;;;18.24;85.99;98548.40;218171;1259;140817;-71
2023/10/21 14:02:54;;;;;;;22.00;17.50;;;;;;;18.18;85.96;98567.06;217232;1259;140239;-71
2023/10/21 14:08:00;;;;;;;19.80;17.70;;;;;;;18.08;85.77;98581.14;217377;1260;140210;-68
2023/10/21 14:13:06;;;;;;;23.70;19.20;;;;;;;18.01;85.92;98579.85;218006;1260;140646;-68
2023/10/21 14:18:11;;;;;;;21.50;19.10;;;;;;;17.90;86.17;98585.17;217191;1262;793567;-69
2023/10/21 14:23:20;;;;;;;22.70;18.60;;;;;;;17.82;86.23;98591.89;218055;1259;140322;-72
2023/10/21 14:28:28;;;;;;;23.90;18.10;;;;;;;17.78;86.19;98585.20;218584;1259;141003;-71
2023/10/21 14:33:34;;;;;;;17.70;15.60;;;;;;;17.70;86.13;98587.15;218313;1262;140400;-70
2023/10/21 14:38:38;;;;;;;;;;;;;;;17.60;85.86;98599.55;217495;1261;140169;-70
2023/10/21 14:43:44;;;;;;;18.90;16.20;;;;;;;17.46;85.84;98606.04;218252;1260;126508;-70
2023/10/21 14:48:50;;;;;;;20.50;15.00;;;;;;;17.31;85.73;98617.73;218000;1262;140663;-69
2023/10/21 14:53:54;;;;;;;20.20;15.60;;;;;;;17.15;85.80;98626.48;217966;1259;233593;-70
2023/10/21 14:59:00;;;;;;;18.90;15.10;;;;;;;16.99;85.91;98633.27;218439;1260;140114;-71
2023/10/21 15:04:06;;;;;;;17.90;14.60;;;;;;;16.79;85.87;98648.66;218312;1260;140887;-73
2023/10/21 15:09:12;;;;;;;18.50;15.00;;;;;;;16.59;85.96;98654.39;217971;1261;141190;-68
2023/10/21 15:14:18;;;;;;;13.80;12.20;;;;;;;16.37;86.03;98652.13;218712;1261;142107;-73
2023/10/21 15:19:37;;;;;;;18.30;12.20;;;;;;;16.13;85.91;98655.86;219317;1260;141456;-72
2023/10/21 15:24:42;;;;;;;23.00;17.70;;;;;;;15.92;85.82;98656.79;218248;1261;140331;-70
2023/10/21 15:29:47;;;;;;;16.60;12.50;;;;;;;15.69;85.29;98661.73;218583;1257;140098;-72
2023/10/21 15:34:54;;;;;;;15.80;13.00;;;;;;;15.36;84.46;98663.20;218873;1261;140389;-70
2023/10/21 15:40:00;;;;;;;16.30;13.20;;;;;;;15.05;84.64;98669.60;218638;1262;140741;-69
2023/10/21 15:45:06;;;;;;;12.00;10.20;;;;;;;14.78;84.31;98672.16;217664;1261;140804;-72
2023/10/21 15:50:11;;;;;;;16.80;12.00;;;;;;;14.55;84.09;98679.48;218181;1259;142216;-71
2023/10/21 15:55:17;;;;;;;16.50;13.40;;;;;;;14.31;84.09;98682.51;217750;1262;140061;-72
2023/10/21 16:00:21;;;;;;;12.30;10.90;;;;;;;14.09;84.34;98683.31;218740;1259;140214;-71
2023/10/21 16:05:25;;;;;;;16.60;12.50;;;;;;;13.84;83.68;98685.38;218005;1260;140230;-69
2023/10/21 16:10:28;;;;;;;17.00;13.50;;;;;;;13.56;83.58;98693.95;218666;1257;140872;-70
2023/10/21 16:15:32;;;;;;;16.10;11.40;;;;;;;13.33;84.12;98707.77;218554;1258;142199;-69
2023/10/21 16:20:36;;;;;;;27.40;12.40;;;;;;;13.22;84.80;98725.96;218219;1258;140348;-72
2023/10/21 16:25:41;;;;;;;23.30;15.80;;;;;;;13.09;84.74;98739.34;217969;1259;140236;-72
2023/10/21 16:30:46;;;;;;;23.40;15.20;;;;;;;12.85;84.28;98748.11;217817;1260;141228;-72
2023/10/21 16:35:54;;;;;;;16.90;13.20;;;;;;;12.66;84.45;98753.94;219199;1261;141239;-72
2023/10/21 16:40:59;;;;;;;42.50;23.10;;;;;;;12.52;84.14;98753.02;218711;1257;140947;-72
2023/10/21 16:46:04;;;;;;;30.10;18.80;;;;;;;12.39;84.10;98767.91;218167;1262;140666;-71
2023/10/21 16:51:08;;;;;;;40.30;24.20;;;;;;;12.17;84.16;98793.31;218385;1260;140980;-72
2023/10/21 16:56:12;;;;;;;34.50;23.50;;;;;;;12.07;84.92;98803.30;218965;1261;140469;-69
2023/10/21 17:01:17;;;;;;;39.60;26.40;;;;;;;11.99;84.90;98796.41;217452;1258;140910;-70
2023/10/21 17:06:21;;;;;;;37.30;22.70;;;;;;;11.91;85.10;98794.38;218917;1260;140239;-71
2023/10/21 17:11:26;;;;;;;35.50;24.10;;;;;;;11.78;84.50;98800.11;218034;1258;140577;-72
2023/10/21 17:16:30;;;;;;;54.90;20.30;;;;;;;11.61;84.64;98818.01;218346;1260;140303;-72
2023/10/21 17:21:35;;;;;;;49.50;20.50;;;;;;;11.50;85.33;98826.58;219943;1263;141351;-72
2023/10/21 17:26:39;;;;;;;51.90;23.60;;;;;;;11.46;85.47;98823.25;218680;1263;140667;-70
2023/10/21 17:31:43;;;;;;;29.30;17.90;;;;;;;11.35;85.33;98823.00;220008;1261;140591;-71
2023/10/21 17:36:47;;;;;;;30.80;17.40;;;;;;;11.19;84.92;98822.73;218246;1261;140417;-69
2023/10/21 17:41:51;;;;;;;42.80;24.30;;;;;;;11.01;85.24;98817.73;218267;1261;140268;-69
2023/10/21 17:46:58;;;;;;;34.00;20.70;;;;;;;10.97;85.81;98819.77;218866;1260;141119;-68
2023/10/21 17:52:02;;;;;;;42.10;24.90;;;;;;;10.90;85.51;98818.92;218622;1259;141363;-68
2023/10/21 17:57:05;;;;;;;57.10;25.60;;;;;;;10.82;85.50;98819.08;217861;1260;142511;-69
2023/10/21 18:02:10;;;;;;;40.60;25.40;;;;;;;10.73;85.72;98819.73;217407;1260;140237;-72
2023/10/21 18:07:15;;;;;;;78.80;28.90;;;;;;;10.55;85.41;98826.08;217547;1260;141120;-68
2023/10/21 18:12:20;;;;;;;37.70;27.20;;;;;;;10.42;86.01;98826.72;217433;1262;140461;-69
2023/10/21 18:17:23;;;;;;;55.40;29.30;;;;;;;10.37;86.70;98835.75;217490;1260;140527;-70
2023/10/21 18:22:31;;;;;;;70.60;32.90;;;;;;;10.31;86.72;98850.30;217232;1261;142353;-69
2023/10/21 18:27:35;;;;;;;48.00;29.80;;;;;;;10.27;87.06;98842.17;217435;1260;141405;-71
2023/10/21 18:32:42;;;;;;;59.40;27.70;;;;;;;10.25;87.23;98839.86;217410;1263;140298;-69
2023/10/21 18:37:46;;;;;;;57.60;32.00;;;;;;;10.13;86.67;98847.45;217516;1260;140594;-70
2023/10/21 18:42:50;;;;;;;48.00;32.40;;;;;;;9.95;86.70;98855.07;217900;1260;140583;-69
2023/10/21 18:47:54;;;;;;;85.60;38.20;;;;;;;9.88;87.10;98865.90;218449;1260;140557;-70
2023/10/21 18:52:58;;;;;;;77.40;45.80;;;;;;;9.74;87.06;98885.52;217300;1261;139795;-71
2023/10/21 18:58:04;;;;;;;79.60;42.40;;;;;;;9.68;87.60;98890.89;217920;1260;140556;-69
2023/10/21 19:03:11;;;;;;;86.50;46.90;;;;;;;9.69;87.92;98898.77;217618;1263;140330;-69
2023/10/21 19:08:15;;;;;;;76.50;45.60;;;;;;;9.64;87.71;98905.47;217579;1262;140591;-68
2023/10/21 19:13:21;;;;;;;72.10;46.20;;;;;;;9.57;87.90;98913.89;218438;1263;140048;-69
2023/10/21 19:18:27;;;;;;;69.50;46.20;;;;;;;9.58;88.15;98914.70;217609;1260;140609;-69
2023/10/21 19:23:33;;;;;;;68.20;44.90;;;;;;;9.58;88.18;98919.23;219545;1258;140031;-68
2023/10/21 19:28:38;;;;;;;63.50;43.40;;;;;;;9.58;88.43;98924.21;219220;1260;142100;-69
2023/10/21 19:33:43;;;;;;;74.60;46.50;;;;;;;9.57;88.08;98934.64;219350;1259;141027;-67
2023/10/21 19:38:50;;;;;;;63.20;41.80;;;;;;;9.51;88.18;98929.55;218370;1259;142582;-67
2023/10/21 19:43:55;;;;;;;95.20;54.20;;;;;;;9.46;87.84;98927.50;217089;1260;140117;-68
2023/10/21 19:49:18;;;;;;;83.20;53.90;;;;;;;9.38;87.93;98924.73;218303;1261;140138;-68
2023/10/21 19:54:23;;;;;;;71.30;50.10;;;;;;;9.34;88.15;98922.71;218439;1260;140002;-67
2023/10/21 19:59:27;;;;;;;84.10;46.70;;;;;;;9.28;88.00;98926.67;217679;1262;140165;-68
2023/10/21 20:04:36;;;;;;;72.40;47.80;;;;;;;9.22;88.15;98922.95;217510;1261;139967;-69
2023/10/21 20:09:45;;;;;;;89.80;55.40;;;;;;;9.12;88.26;98923.60;217413;1262;140316;-69
2023/10/21 20:14:50;;;;;;;118.10;54.90;;;;;;;9.05;88.25;98922.10;217732;1260;140253;-68
2023/10/21 20:19:57;;;;;;;80.00;49.40;;;;;;;8.99;88.62;98925.84;217590;1262;140530;-67
2023/10/21 20:25:02;;;;;;;81.50;50.00;;;;;;;8.99;88.78;98927.17;218436;1259;139913;-69
2023/10/21 20:30:07;;;;;;;63.30;42.20;;;;;;;8.98;89.06;98923.86;217803;1259;140266;-68
2023/10/21 20:35:11;;;;;;;78.80;50.70;;;;;;;8.97;89.21;98925.54;218398;1259;140730;-71
2023/10/21 20:40:38;;;;;;;81.30;48.10;;;;;;;8.97;89.41;98924.17;217425;1259;140978;-69
2023/10/21 20:45:43;;;;;;;72.40;46.10;;;;;;;8.98;89.39;98919.40;218569;1259;210699;-70
2023/10/21 20:50:51;;;;;;;73.10;46.80;;;;;;;8.95;89.30;98915.19;217654;1261;140148;-70
2023/10/21 20:55:55;;;;;;;66.90;48.20;;;;;;;8.90;88.95;98914.70;218174;1258;142634;-68
2023/10/21 21:00:59;;;;;;;74.10;48.70;;;;;;;8.88;89.48;98910.62;218526;1259;141397;-71
2023/10/21 21:06:04;;;;;;;78.00;44.90;;;;;;;8.91;89.82;98907.90;218932;1257;140052;-69
2023/10/21 21:11:08;;;;;;;73.10;45.70;;;;;;;8.93;89.97;98906.13;219050;1259;140256;-69
2023/10/21 21:16:13;;;;;;;98.10;56.30;;;;;;;8.97;90.05;98902.21;219353;1257;142168;-69
2023/10/21 21:21:18;;;;;;;51.10;37.80;;;;;;;8.98;89.86;98900.52;219495;1257;141320;-68
2023/10/21 21:26:23;;;;;;;64.70;45.80;;;;;;;8.92;89.72;98898.79;219544;1257;141279;-69
2023/10/21 21:31:32;;;;;;;62.20;45.60;;;;;;;8.96;90.23;98898.16;218575;1257;141490;-70
2023/10/21 21:36:39;;;;;;;87.80;46.50;;;;;;;9.03;90.41;98896.98;218627;1257;141755;-72
2023/10/21 21:41:44;;;;;;;67.00;44.90;;;;;;;9.05;90.55;98900.88;217857;1257;140023;-70
2023/10/21 21:46:48;;;;;;;65.20;40.00;;;;;;;9.04;90.40;98900.98;218546;1257;140154;-70
2023/10/21 21:51:54;;;;;;;66.40;45.90;;;;;;;9.01;90.43;98902.32;217789;1257;140162;-68
2023/10/21 21:56:59;;;;;;;70.50;46.90;;;;;;;9.02;90.81;98892.23;218445;1258;141001;-69
2023/10/21 22:02:03;;;;;;;67.30;45.00;;;;;;;9.06;90.92;98895.01;218456;1257;140335;-70
2023/10/21 22:07:08;;;;;;;67.10;44.70;;;;;;;9.08;91.00;98896.91;218151;1261;139988;-69
2023/10/21 22:12:12;;;;;;;71.30;43.80;;;;;;;9.12;91.11;98894.73;218271;1257;140393;-68
2023/10/21 22:17:17;;;;;;;79.10;48.00;;;;;;;9.14;91.10;98887.14;218390;1258;140075;-68
2023/10/21 22:22:22;;;;;;;72.60;46.40;;;;;;;9.16;91.16;98889.09;217701;1262;141025;-69
2023/10/21 22:27:27;;;;;;;80.10;47.30;;;;;;;9.19;91.33;98884.20;217485;1262;139813;-69
2023/10/21 22:32:33;;;;;;;84.90;47.20;;;;;;;9.21;91.71;98881.69;217765;1262;140053;-69
2023/10/21 22:37:38;;;;;;;73.00;45.10;;;;;;;9.26;92.06;98876.90;218184;1259;140543;-68
2023/10/21 22:42:44;;;;;;;76.60;46.90;;;;;;;9.32;92.28;98876.77;218330;1257;140418;-69
2023/10/21 22:47:49;;;;;;;69.90;44.50;;;;;;;9.38;92.53;98872.50;217868;1257;139953;-68
2023/10/21 22:52:54;;;;;;;60.20;41.60;;;;;;;9.44;92.48;98867.30;218280;1257;139996;-70
2023/10/21 22:57:59;;;;;;;60.60;40.60;;;;;;;9.50;92.64;98861.35;218470;1260;142047;-68
2023/10/21 23:03:04;;;;;;;53.30;38.20;;;;;;;9.58;92.92;98862.66;219010;1258;140705;-69
2023/10/21 23:08:15;;;;;;;47.30;34.80;;;;;;;9.68;93.23;98859.59;218239;1257;140202;-68
2023/10/21 23:13:21;;;;;;;51.20;35.30;;;;;;;9.81;93.84;98863.22;218695;1257;140254;-68
2023/10/21 23:18:26;;;;;;;52.60;36.30;;;;;;;9.88;93.63;98868.72;219236;1258;141129;-69
2023/10/21 23:23:30;;;;;;;47.30;36.20;;;;;;;9.97;93.68;98873.04;218625;1257;141162;-70
2023/10/21 23:28:34;;;;;;;48.70;33.70;;;;;;;10.04;93.60;98874.05;218790;1257;141049;-70
2023/10/21 23:33:38;;;;;;;47.40;33.90;;;;;;;10.11;93.78;98878.05;218231;1260;141766;-70
2023/10/21 23:38:45;;;;;;;48.70;34.90;;;;;;;10.18;93.89;98881.36;218903;1257;140294;-69
2023/10/21 23:43:50;;;;;;;60.30;36.10;;;;;;;10.25;93.87;98877.95;218155;1258;141483;-69